createdAt,value
2018-08-21T00:00:33.375Z,1006.98
2018-08-21T00:01:13.879Z,1007.01
2018-08-21T00:01:54.350Z,1007.01
2018-08-21T00:02:34.852Z,1006.99
2018-08-21T00:03:15.375Z,1006.95
2018-08-21T00:03:55.889Z,1006.91
2018-08-21T00:04:36.399Z,1006.98
2018-08-21T00:05:16.872Z,1006.98
2018-08-21T00:05:57.387Z,1006.96
2018-08-21T00:06:37.898Z,1006.95
2018-08-21T00:07:18.410Z,1006.94
2018-08-21T00:07:58.910Z,1006.96
2018-08-21T00:08:39.382Z,1006.94
2018-08-21T00:09:19.927Z,1006.97
2018-08-21T00:10:00.418Z,1006.97
2018-08-21T00:10:40.934Z,1007
2018-08-21T00:11:21.404Z,1006.97
2018-08-21T00:12:01.943Z,1006.97
2018-08-21T00:12:42.414Z,1007.01
2018-08-21T00:13:22.917Z,1006.97
2018-08-21T00:14:03.365Z,1007
2018-08-21T00:14:43.879Z,1007.02
2018-08-21T00:15:24.385Z,1007.02
2018-08-21T00:16:04.881Z,1007.03
2018-08-21T00:16:45.368Z,1007.04
2018-08-21T00:17:25.855Z,1006.99
2018-08-21T00:18:06.377Z,1007.01
2018-08-21T00:18:46.874Z,1007.02
2018-08-21T00:19:27.370Z,1006.99
2018-08-21T00:20:07.922Z,1007.02
2018-08-21T00:20:48.399Z,1007.03
2018-08-21T00:21:28.911Z,1007
2018-08-21T00:22:09.388Z,1006.99
2018-08-21T00:22:49.871Z,1007.02
2018-08-21T00:23:30.378Z,1006.99
2018-08-21T00:24:10.913Z,1007.03
2018-08-21T00:24:51.404Z,1007.03
2018-08-21T00:25:31.873Z,1006.97
2018-08-21T00:26:12.389Z,1006.97
2018-08-21T00:26:52.879Z,1006.94
2018-08-21T00:27:33.371Z,1007
2018-08-21T00:28:13.856Z,1006.99
2018-08-21T00:28:54.366Z,1006.98
2018-08-21T00:29:34.857Z,1006.98
2018-08-21T00:30:15.356Z,1006.98
2018-08-21T00:30:55.831Z,1006.96
2018-08-21T00:31:36.337Z,1006.94
2018-08-21T00:32:16.858Z,1006.94
2018-08-21T00:32:57.405Z,1006.96
2018-08-21T00:33:37.855Z,1006.97
2018-08-21T00:34:18.332Z,1006.91
2018-08-21T00:34:58.852Z,1006.97
2018-08-21T00:35:39.350Z,1006.95
2018-08-21T00:36:19.800Z,1006.94
2018-08-21T00:37:00.306Z,1006.94
2018-08-21T00:37:40.789Z,1006.97
2018-08-21T00:38:21.267Z,1006.97
2018-08-21T00:39:01.748Z,1006.94
2018-08-21T00:39:42.234Z,1006.97
2018-08-21T00:40:22.734Z,1006.94
2018-08-21T00:41:03.196Z,1006.95
2018-08-21T00:41:43.695Z,1006.89
2018-08-21T00:42:24.202Z,1006.93
2018-08-21T00:43:04.685Z,1006.95
2018-08-21T00:43:45.170Z,1006.91
2018-08-21T00:44:25.683Z,1006.95
2018-08-21T00:45:06.196Z,1006.97
2018-08-21T00:45:46.698Z,1006.98
2018-08-21T00:46:27.166Z,1006.96
2018-08-21T00:47:07.687Z,1006.98
2018-08-21T00:47:48.230Z,1006.99
2018-08-21T00:48:28.707Z,1006.96
2018-08-21T00:49:09.212Z,1007
2018-08-21T00:49:49.752Z,1006.99
2018-08-21T00:50:30.891Z,1006.99
2018-08-21T00:51:11.365Z,1006.97
2018-08-21T00:51:51.848Z,1006.98
2018-08-21T00:52:32.314Z,1006.97
2018-08-21T00:53:12.830Z,1006.97
2018-08-21T00:53:53.298Z,1006.96
2018-08-21T00:54:33.783Z,1006.96
2018-08-21T00:55:14.314Z,1006.99
2018-08-21T00:55:54.832Z,1006.92
2018-08-21T00:56:35.287Z,1006.96
2018-08-21T00:57:15.761Z,1006.9
2018-08-21T00:57:56.243Z,1006.95
2018-08-21T00:58:36.741Z,1006.96
2018-08-21T00:59:17.265Z,1006.93
2018-08-21T00:59:57.767Z,1006.94
2018-08-21T01:00:38.258Z,1006.9
2018-08-21T01:01:18.751Z,1006.94
2018-08-21T01:01:59.259Z,1006.91
2018-08-21T01:02:39.786Z,1006.94
2018-08-21T01:03:20.280Z,1006.92
2018-08-21T01:04:00.810Z,1006.91
2018-08-21T01:04:41.336Z,1006.93
2018-08-21T01:05:21.808Z,1006.9
2018-08-21T01:06:02.323Z,1006.92
2018-08-21T01:06:42.833Z,1006.91
2018-08-21T01:07:23.308Z,1006.89
2018-08-21T01:08:03.777Z,1006.93
2018-08-21T01:08:44.237Z,1006.91
2018-08-21T01:09:24.751Z,1006.9
2018-08-21T01:10:05.259Z,1006.91
2018-08-21T01:10:45.802Z,1006.94
2018-08-21T01:11:26.290Z,1006.9
2018-08-21T01:12:06.799Z,1006.9
2018-08-21T01:12:47.298Z,1006.91
2018-08-21T01:13:27.803Z,1006.94
2018-08-21T01:14:08.338Z,1006.91
2018-08-21T01:14:48.811Z,1006.9
2018-08-21T01:15:29.307Z,1006.87
2018-08-21T01:16:09.808Z,1006.91
2018-08-21T01:16:50.308Z,1006.88
2018-08-21T01:17:30.807Z,1006.86
2018-08-21T01:18:11.292Z,1006.91
2018-08-21T01:18:51.790Z,1006.86
2018-08-21T01:19:32.298Z,1006.87
2018-08-21T01:20:12.749Z,1006.88
2018-08-21T01:20:53.259Z,1006.87
2018-08-21T01:21:33.777Z,1006.87
2018-08-21T01:22:14.308Z,1006.84
2018-08-21T01:22:54.788Z,1006.86
2018-08-21T01:23:35.255Z,1006.83
2018-08-21T01:24:15.741Z,1006.86
2018-08-21T01:24:56.251Z,1006.86
2018-08-21T01:25:36.737Z,1006.84
2018-08-21T01:26:17.201Z,1006.83
2018-08-21T01:26:57.697Z,1006.84
2018-08-21T01:27:38.276Z,1006.84
2018-08-21T01:28:18.739Z,1006.82
2018-08-21T01:28:59.163Z,1006.79
2018-08-21T01:29:39.681Z,1006.79
2018-08-21T01:30:20.161Z,1006.8
2018-08-21T01:31:00.674Z,1006.83
2018-08-21T01:31:41.139Z,1006.81
2018-08-21T01:32:21.640Z,1006.8
2018-08-21T01:33:02.109Z,1006.79
2018-08-21T01:33:42.645Z,1006.81
2018-08-21T01:34:23.102Z,1006.79
2018-08-21T01:35:03.637Z,1006.78
2018-08-21T01:35:44.131Z,1006.79
2018-08-21T01:36:24.629Z,1006.77
2018-08-21T01:37:05.161Z,1006.8
2018-08-21T01:37:45.631Z,1006.84
2018-08-21T01:38:26.168Z,1006.8
2018-08-21T01:39:06.609Z,1006.74
2018-08-21T01:39:47.133Z,1006.74
2018-08-21T01:40:27.637Z,1006.72
2018-08-21T01:41:08.173Z,1006.75
2018-08-21T01:41:48.676Z,1006.75
2018-08-21T01:42:29.164Z,1006.7
2018-08-21T01:43:09.671Z,1006.69
2018-08-21T01:43:50.193Z,1006.71
2018-08-21T01:44:30.679Z,1006.66
2018-08-21T01:45:11.217Z,1006.68
2018-08-21T01:45:51.733Z,1006.68
2018-08-21T01:46:32.216Z,1006.67
2018-08-21T01:47:12.684Z,1006.67
2018-08-21T01:47:53.172Z,1006.63
2018-08-21T01:48:33.679Z,1006.64
2018-08-21T01:49:14.190Z,1006.65
2018-08-21T01:49:54.736Z,1006.65
2018-08-21T01:50:35.216Z,1006.66
2018-08-21T01:51:15.721Z,1006.64
2018-08-21T01:51:56.229Z,1006.68
2018-08-21T01:52:36.719Z,1006.63
2018-08-21T01:53:17.291Z,1006.6
2018-08-21T01:53:57.804Z,1006.62
2018-08-21T01:54:38.284Z,1006.63
2018-08-21T01:55:18.817Z,1006.64
2018-08-21T01:55:59.286Z,1006.65
2018-08-21T01:56:39.831Z,1006.65
2018-08-21T01:57:20.313Z,1006.65
2018-08-21T01:58:00.824Z,1006.67
2018-08-21T01:58:41.312Z,1006.66
2018-08-21T01:59:21.768Z,1006.65
2018-08-21T02:00:02.266Z,1006.66
2018-08-21T02:00:42.779Z,1006.65
2018-08-21T02:01:23.222Z,1006.65
2018-08-21T02:02:03.724Z,1006.65
2018-08-21T02:02:44.249Z,1006.61
2018-08-21T02:03:24.748Z,1006.63
2018-08-21T02:04:05.246Z,1006.63
2018-08-21T02:04:45.734Z,1006.63
2018-08-21T02:05:26.250Z,1006.66
2018-08-21T02:06:06.754Z,1006.64
2018-08-21T02:06:47.245Z,1006.65
2018-08-21T02:07:27.768Z,1006.65
2018-08-21T02:08:08.298Z,1006.63
2018-08-21T02:08:48.798Z,1006.62
2018-08-21T02:09:29.250Z,1006.64
2018-08-21T02:10:09.766Z,1006.62
2018-08-21T02:10:50.264Z,1006.61
2018-08-21T02:11:30.754Z,1006.62
2018-08-21T02:12:11.203Z,1006.62
2018-08-21T02:12:51.713Z,1006.61
2018-08-21T02:13:32.216Z,1006.62
2018-08-21T02:14:12.739Z,1006.63
2018-08-21T02:14:53.216Z,1006.62
2018-08-21T02:15:33.713Z,1006.64
2018-08-21T02:16:14.260Z,1006.61
2018-08-21T02:16:54.810Z,1006.62
2018-08-21T02:17:35.250Z,1006.64
2018-08-21T02:18:15.743Z,1006.69
2018-08-21T02:18:56.274Z,1006.6
2018-08-21T02:19:36.772Z,1006.63
2018-08-21T02:20:17.260Z,1006.62
2018-08-21T02:20:57.749Z,1006.61
2018-08-21T02:21:38.207Z,1006.61
2018-08-21T02:22:18.692Z,1006.66
2018-08-21T02:22:59.192Z,1006.67
2018-08-21T02:23:39.749Z,1006.65
2018-08-21T02:24:20.251Z,1006.65
2018-08-21T02:25:00.733Z,1006.67
2018-08-21T02:25:41.211Z,1006.64
2018-08-21T02:26:21.721Z,1006.66
2018-08-21T02:27:02.206Z,1006.65
2018-08-21T02:27:42.748Z,1006.69
2018-08-21T02:28:23.268Z,1006.64
2018-08-21T02:29:03.778Z,1006.65
2018-08-21T02:29:44.287Z,1006.62
2018-08-21T02:30:24.760Z,1006.67
2018-08-21T02:31:05.261Z,1006.67
2018-08-21T02:31:45.765Z,1006.66
2018-08-21T02:32:26.247Z,1006.7
2018-08-21T02:33:06.753Z,1006.68
2018-08-21T02:33:47.230Z,1006.66
2018-08-21T02:34:27.728Z,1006.64
2018-08-21T02:35:08.234Z,1006.67
2018-08-21T02:35:48.688Z,1006.65
2018-08-21T02:36:29.185Z,1006.62
2018-08-21T02:37:09.684Z,1006.64
2018-08-21T02:37:50.219Z,1006.67
2018-08-21T02:38:30.691Z,1006.59
2018-08-21T02:39:11.186Z,1006.59
2018-08-21T02:39:51.681Z,1006.64
2018-08-21T02:40:32.199Z,1006.57
2018-08-21T02:41:12.670Z,1006.59
2018-08-21T02:41:53.222Z,1006.59
2018-08-21T02:42:33.677Z,1006.61
2018-08-21T02:43:14.191Z,1006.57
2018-08-21T02:43:54.705Z,1006.64
2018-08-21T02:44:35.178Z,1006.59
2018-08-21T02:45:15.743Z,1006.6
2018-08-21T02:45:56.196Z,1006.57
2018-08-21T02:46:36.731Z,1006.62
2018-08-21T02:47:17.224Z,1006.61
2018-08-21T02:47:57.721Z,1006.61
2018-08-21T02:48:38.173Z,1006.61
2018-08-21T02:49:18.676Z,1006.6
2018-08-21T02:49:59.208Z,1006.61
2018-08-21T02:50:39.639Z,1006.6
2018-08-21T02:51:20.148Z,1006.61
2018-08-21T02:52:00.641Z,1006.65
2018-08-21T02:52:41.119Z,1006.6
2018-08-21T02:53:21.634Z,1006.59
2018-08-21T02:54:02.156Z,1006.64
2018-08-21T02:54:42.642Z,1006.64
2018-08-21T02:55:23.142Z,1006.64
2018-08-21T02:56:03.663Z,1006.66
2018-08-21T02:56:44.147Z,1006.59
2018-08-21T02:57:24.645Z,1006.61
2018-08-21T02:58:05.179Z,1006.64
2018-08-21T02:58:45.676Z,1006.6
2018-08-21T02:59:26.268Z,1006.61
2018-08-21T03:00:06.808Z,1006.65
2018-08-21T03:00:47.302Z,1006.62
2018-08-21T03:01:27.758Z,1006.62
2018-08-21T03:02:08.266Z,1006.59
2018-08-21T03:02:48.802Z,1006.64
2018-08-21T03:03:29.343Z,1006.59
2018-08-21T03:04:09.798Z,1006.6
2018-08-21T03:04:50.300Z,1006.59
2018-08-21T03:05:30.769Z,1006.61
2018-08-21T03:06:11.348Z,1006.61
2018-08-21T03:06:51.837Z,1006.58
2018-08-21T03:07:32.361Z,1006.59
2018-08-21T03:08:12.834Z,1006.59
2018-08-21T03:08:53.539Z,1006.59
2018-08-21T03:09:34.039Z,1006.53
2018-08-21T03:10:14.542Z,1006.56
2018-08-21T03:10:55.009Z,1006.57
2018-08-21T03:11:35.506Z,1006.61
2018-08-21T03:12:16.108Z,1006.6
2018-08-21T03:12:56.631Z,1006.6
2018-08-21T03:13:37.105Z,1006.6
2018-08-21T03:14:17.643Z,1006.57
2018-08-21T03:14:58.156Z,1006.58
2018-08-21T03:15:38.614Z,1006.55
2018-08-21T03:16:19.132Z,1006.56
2018-08-21T03:16:59.597Z,1006.58
2018-08-21T03:17:40.070Z,1006.57
2018-08-21T03:18:20.604Z,1006.6
2018-08-21T03:19:01.147Z,1006.61
2018-08-21T03:19:41.624Z,1006.56
2018-08-21T03:20:22.093Z,1006.57
2018-08-21T03:21:02.619Z,1006.58
2018-08-21T03:21:43.173Z,1006.6
2018-08-21T03:22:23.574Z,1006.59
2018-08-21T03:23:04.085Z,1006.56
2018-08-21T03:23:44.538Z,1006.56
2018-08-21T03:24:25.038Z,1006.57
2018-08-21T03:25:05.587Z,1006.53
2018-08-21T03:25:46.033Z,1006.57
2018-08-21T03:26:26.513Z,1006.58
2018-08-21T03:27:07.003Z,1006.59
2018-08-21T03:27:47.480Z,1006.57
2018-08-21T03:28:27.981Z,1006.59
2018-08-21T03:29:08.466Z,1006.6
2018-08-21T03:29:48.969Z,1006.61
2018-08-21T03:30:29.428Z,1006.6
2018-08-21T03:31:09.976Z,1006.59
2018-08-21T03:31:50.454Z,1006.6
2018-08-21T03:32:30.932Z,1006.59
2018-08-21T03:33:11.439Z,1006.59
2018-08-21T03:33:51.948Z,1006.57
2018-08-21T03:34:32.375Z,1006.57
2018-08-21T03:35:12.888Z,1006.57
2018-08-21T03:35:53.407Z,1006.57
2018-08-21T03:36:33.900Z,1006.57
2018-08-21T03:37:14.376Z,1006.59
2018-08-21T03:37:54.883Z,1006.59
2018-08-21T03:38:35.422Z,1006.56
2018-08-21T03:39:15.900Z,1006.53
2018-08-21T03:39:56.456Z,1006.56
2018-08-21T03:40:36.874Z,1006.57
2018-08-21T03:41:17.390Z,1006.53
2018-08-21T03:41:57.896Z,1006.53
2018-08-21T03:42:38.372Z,1006.57
2018-08-21T03:43:18.852Z,1006.58
2018-08-21T03:43:59.368Z,1006.56
2018-08-21T03:44:39.855Z,1006.59
2018-08-21T03:45:20.411Z,1006.54
2018-08-21T03:46:00.881Z,1006.56
2018-08-21T03:46:41.407Z,1006.52
2018-08-21T03:47:21.930Z,1006.55
2018-08-21T03:48:02.381Z,1006.51
2018-08-21T03:48:42.850Z,1006.55
2018-08-21T03:49:23.326Z,1006.57
2018-08-21T03:50:03.857Z,1006.56
2018-08-21T03:50:44.344Z,1006.56
2018-08-21T03:51:24.790Z,1006.55
2018-08-21T03:52:05.314Z,1006.56
2018-08-21T03:52:45.799Z,1006.55
2018-08-21T03:53:26.295Z,1006.56
2018-08-21T03:54:06.804Z,1006.57
2018-08-21T03:54:47.320Z,1006.57
2018-08-21T03:55:27.862Z,1006.57
2018-08-21T03:56:08.342Z,1006.61
2018-08-21T03:56:48.895Z,1006.57
2018-08-21T03:57:29.385Z,1006.61
2018-08-21T03:58:09.874Z,1006.63
2018-08-21T03:58:50.377Z,1006.6
2018-08-21T03:59:30.864Z,1006.57
2018-08-21T04:00:11.404Z,1006.59
2018-08-21T04:00:51.888Z,1006.63
2018-08-21T04:01:32.394Z,1006.62
2018-08-21T04:02:12.909Z,1006.6
2018-08-21T04:02:53.400Z,1006.61
2018-08-21T04:03:33.860Z,1006.61
2018-08-21T04:04:14.369Z,1006.62
2018-08-21T04:04:54.879Z,1006.67
2018-08-21T04:05:35.439Z,1006.62
2018-08-21T04:06:15.933Z,1006.63
2018-08-21T04:06:56.445Z,1006.68
2018-08-21T04:07:36.958Z,1006.65
2018-08-21T04:08:17.498Z,1006.66
2018-08-21T04:08:58.015Z,1006.67
2018-08-21T04:09:38.474Z,1006.65
2018-08-21T04:10:19.005Z,1006.66
2018-08-21T04:10:59.502Z,1006.68
2018-08-21T04:11:40.124Z,1006.65
2018-08-21T04:12:20.661Z,1006.65
2018-08-21T04:13:01.134Z,1006.66
2018-08-21T04:13:41.625Z,1006.66
2018-08-21T04:14:22.124Z,1006.67
2018-08-21T04:15:02.631Z,1006.64
2018-08-21T04:15:43.149Z,1006.64
2018-08-21T04:16:23.605Z,1006.67
2018-08-21T04:17:04.084Z,1006.65
2018-08-21T04:17:44.588Z,1006.64
2018-08-21T04:18:25.081Z,1006.62
2018-08-21T04:19:05.579Z,1006.63
2018-08-21T04:19:46.068Z,1006.61
2018-08-21T04:20:28.624Z,1006.62
2018-08-21T04:21:07.075Z,1006.61
2018-08-21T04:21:47.594Z,1006.62
2018-08-21T04:22:28.090Z,1006.58
2018-08-21T04:23:08.570Z,1006.59
2018-08-21T04:23:49.075Z,1006.61
2018-08-21T04:24:29.590Z,1006.6
2018-08-21T04:25:10.082Z,1006.59
2018-08-21T04:25:50.564Z,1006.61
2018-08-21T04:26:31.111Z,1006.58
2018-08-21T04:27:11.557Z,1006.62
2018-08-21T04:27:52.045Z,1006.63
2018-08-21T04:28:32.533Z,1006.62
2018-08-21T04:29:13.048Z,1006.63
2018-08-21T04:29:53.495Z,1006.61
2018-08-21T04:30:34.031Z,1006.64
2018-08-21T04:31:14.536Z,1006.62
2018-08-21T04:31:55.053Z,1006.66
2018-08-21T04:32:35.608Z,1006.63
2018-08-21T04:33:16.038Z,1006.65
2018-08-21T04:33:56.540Z,1006.62
2018-08-21T04:34:37.025Z,1006.61
2018-08-21T04:35:17.510Z,1006.64
2018-08-21T04:35:58.044Z,1006.63
2018-08-21T04:36:38.557Z,1006.68
2018-08-21T04:37:19.028Z,1006.64
2018-08-21T04:37:59.583Z,1006.63
2018-08-21T04:38:40.007Z,1006.65
2018-08-21T04:39:20.498Z,1006.65
2018-08-21T04:40:01.040Z,1006.66
2018-08-21T04:40:41.448Z,1006.72
2018-08-21T04:41:21.958Z,1006.66
2018-08-21T04:42:02.416Z,1006.67
2018-08-21T04:42:42.914Z,1006.7
2018-08-21T04:43:23.409Z,1006.67
2018-08-21T04:44:03.889Z,1006.72
2018-08-21T04:44:44.412Z,1006.66
2018-08-21T04:45:24.879Z,1006.67
2018-08-21T04:46:05.345Z,1006.65
2018-08-21T04:46:45.847Z,1006.71
2018-08-21T04:47:26.315Z,1006.7
2018-08-21T04:48:06.817Z,1006.66
2018-08-21T04:48:47.276Z,1006.67
2018-08-21T04:49:27.764Z,1006.69
2018-08-21T04:50:08.325Z,1006.69
2018-08-21T04:50:48.814Z,1006.62
2018-08-21T04:51:29.334Z,1006.65
2018-08-21T04:52:09.806Z,1006.62
2018-08-21T04:52:50.299Z,1006.65
2018-08-21T04:53:30.818Z,1006.62
2018-08-21T04:54:11.295Z,1006.64
2018-08-21T04:54:51.859Z,1006.67
2018-08-21T04:55:32.298Z,1006.67
2018-08-21T04:56:12.795Z,1006.66
2018-08-21T04:56:53.301Z,1006.65
2018-08-21T04:57:33.790Z,1006.67
2018-08-21T04:58:14.340Z,1006.69
2018-08-21T04:58:54.851Z,1006.66
2018-08-21T04:59:35.336Z,1006.68
2018-08-21T05:00:15.812Z,1006.71
2018-08-21T05:00:56.312Z,1006.69
2018-08-21T05:01:36.792Z,1006.71
2018-08-21T05:02:17.327Z,1006.7
2018-08-21T05:02:57.795Z,1006.71
2018-08-21T05:03:38.256Z,1006.72
2018-08-21T05:04:18.771Z,1006.72
2018-08-21T05:04:59.266Z,1006.67
2018-08-21T05:05:39.821Z,1006.69
2018-08-21T05:06:20.247Z,1006.71
2018-08-21T05:07:00.846Z,1006.71
2018-08-21T05:07:41.266Z,1006.69
2018-08-21T05:08:21.787Z,1006.71
2018-08-21T05:09:02.298Z,1006.77
2018-08-21T05:09:42.786Z,1006.77
2018-08-21T05:10:23.251Z,1006.74
2018-08-21T05:11:03.774Z,1006.82
2018-08-21T05:11:44.288Z,1006.79
2018-08-21T05:12:24.786Z,1006.78
2018-08-21T05:13:05.273Z,1006.73
2018-08-21T05:13:45.747Z,1006.81
2018-08-21T05:14:26.235Z,1006.8
2018-08-21T05:15:06.703Z,1006.79
2018-08-21T05:15:47.219Z,1006.81
2018-08-21T05:16:27.743Z,1006.78
2018-08-21T05:17:08.237Z,1006.81
2018-08-21T05:17:48.772Z,1006.81
2018-08-21T05:18:29.458Z,1006.8
2018-08-21T05:19:09.962Z,1006.79
2018-08-21T05:19:50.441Z,1006.84
2018-08-21T05:20:30.958Z,1006.81
2018-08-21T05:21:11.410Z,1006.84
2018-08-21T05:21:51.926Z,1006.79
2018-08-21T05:22:32.434Z,1006.84
2018-08-21T05:23:12.932Z,1006.84
2018-08-21T05:23:53.375Z,1006.81
2018-08-21T05:24:33.885Z,1006.8
2018-08-21T05:25:14.336Z,1006.75
2018-08-21T05:25:54.876Z,1006.79
2018-08-21T05:26:35.381Z,1006.78
2018-08-21T05:27:15.869Z,1006.75
2018-08-21T05:27:56.382Z,1006.75
2018-08-21T05:28:36.976Z,1006.76
2018-08-21T05:29:17.366Z,1006.77
2018-08-21T05:29:57.889Z,1006.76
2018-08-21T05:30:38.377Z,1006.78
2018-08-21T05:31:18.855Z,1006.75
2018-08-21T05:31:59.490Z,1006.77
2018-08-21T05:32:40.184Z,1006.77
2018-08-21T05:33:20.452Z,1006.77
2018-08-21T05:34:01.010Z,1006.79
2018-08-21T05:34:41.475Z,1006.79
2018-08-21T05:35:21.932Z,1006.81
2018-08-21T05:36:02.466Z,1006.82
2018-08-21T05:36:42.927Z,1006.77
2018-08-21T05:37:23.387Z,1006.79
2018-08-21T05:38:03.950Z,1006.79
2018-08-21T05:38:44.369Z,1006.85
2018-08-21T05:39:24.906Z,1006.84
2018-08-21T05:40:05.389Z,1006.84
2018-08-21T05:40:45.904Z,1006.8
2018-08-21T05:41:26.410Z,1006.84
2018-08-21T05:42:06.976Z,1006.86
2018-08-21T05:42:47.509Z,1006.83
2018-08-21T05:43:28.023Z,1006.86
2018-08-21T05:44:08.480Z,1006.87
2018-08-21T05:44:48.993Z,1006.83
2018-08-21T05:45:29.470Z,1006.89
2018-08-21T05:46:10.000Z,1006.9
2018-08-21T05:46:50.491Z,1006.89
2018-08-21T05:47:31.015Z,1006.92
2018-08-21T05:48:11.523Z,1006.92
2018-08-21T05:48:51.991Z,1006.96
2018-08-21T05:49:32.499Z,1006.98
2018-08-21T05:50:13.037Z,1006.9
2018-08-21T05:50:53.594Z,1006.97
2018-08-21T05:51:34.133Z,1006.94
2018-08-21T05:52:14.626Z,1006.97
2018-08-21T05:52:55.127Z,1006.92
2018-08-21T05:53:35.657Z,1006.93
2018-08-21T05:54:16.096Z,1007
2018-08-21T05:54:56.614Z,1007
2018-08-21T05:55:37.274Z,1006.98
2018-08-21T05:56:17.566Z,1006.96
2018-08-21T05:56:58.084Z,1006.99
2018-08-21T05:57:38.537Z,1006.98
2018-08-21T05:58:19.047Z,1007.01
2018-08-21T05:58:59.574Z,1007.01
2018-08-21T05:59:40.080Z,1007.01
2018-08-21T06:00:20.609Z,1006.97
2018-08-21T06:01:01.049Z,1007.01
2018-08-21T06:01:41.555Z,1006.99
2018-08-21T06:02:22.080Z,1007.01
2018-08-21T06:03:02.577Z,1007.03
2018-08-21T06:03:43.027Z,1007.03
2018-08-21T06:04:23.590Z,1007.03
2018-08-21T06:05:04.057Z,1007.06
2018-08-21T06:05:44.536Z,1007.05
2018-08-21T06:06:25.072Z,1007.03
2018-08-21T06:07:05.862Z,1007.02
2018-08-21T06:07:46.384Z,1007.07
2018-08-21T06:08:26.846Z,1007.07
2018-08-21T06:09:07.315Z,1007.07
2018-08-21T06:09:47.860Z,1007.04
2018-08-21T06:10:28.373Z,1007.04
2018-08-21T06:11:08.831Z,1007.04
2018-08-21T06:11:49.354Z,1007.03
2018-08-21T06:12:29.849Z,1007.03
2018-08-21T06:13:10.345Z,1007.03
2018-08-21T06:13:50.837Z,1007.04
2018-08-21T06:14:31.315Z,1007.04
2018-08-21T06:15:11.792Z,1007.05
2018-08-21T06:15:52.291Z,1007.02
2018-08-21T06:16:32.751Z,1007.04
2018-08-21T06:17:13.316Z,1007.03
2018-08-21T06:17:53.802Z,1007.05
2018-08-21T06:18:34.283Z,1007.07
2018-08-21T06:19:14.751Z,1007.01
2018-08-21T06:19:55.292Z,1007
2018-08-21T06:20:35.820Z,1006.99
2018-08-21T06:21:16.311Z,1007.01
2018-08-21T06:21:56.827Z,1007.03
2018-08-21T06:22:37.296Z,1007.04
2018-08-21T06:23:17.895Z,1007.02
2018-08-21T06:23:58.371Z,1007.05
2018-08-21T06:24:38.859Z,1007.06
2018-08-21T06:25:19.359Z,1007.02
2018-08-21T06:25:59.837Z,1007.06
2018-08-21T06:26:40.325Z,1007.05
2018-08-21T06:27:20.825Z,1007.03
2018-08-21T06:28:01.318Z,1007.05
2018-08-21T06:28:41.768Z,1007.07
2018-08-21T06:29:22.307Z,1007.04
2018-08-21T06:30:02.733Z,1007.03
2018-08-21T06:30:43.227Z,1007.04
2018-08-21T06:31:23.771Z,1007.01
2018-08-21T06:32:04.353Z,1007.07
2018-08-21T06:32:44.742Z,1007.09
2018-08-21T06:33:25.232Z,1007.1
2018-08-21T06:34:05.744Z,1007.07
2018-08-21T06:34:46.229Z,1007.13
2018-08-21T06:35:26.782Z,1007.08
2018-08-21T06:36:07.349Z,1007.05
2018-08-21T06:36:47.849Z,1007.04
2018-08-21T06:37:28.369Z,1007.07
2018-08-21T06:38:08.837Z,1007.08
2018-08-21T06:38:49.340Z,1007.08
2018-08-21T06:39:29.811Z,1007.09
2018-08-21T06:40:10.344Z,1007.06
2018-08-21T06:40:50.812Z,1007.09
2018-08-21T06:41:31.301Z,1007.1
2018-08-21T06:42:11.810Z,1007.09
2018-08-21T06:42:52.279Z,1007.11
2018-08-21T06:43:32.791Z,1007.11
2018-08-21T06:44:13.290Z,1007.09
2018-08-21T06:44:53.794Z,1007.12
2018-08-21T06:45:34.332Z,1007.12
2018-08-21T06:46:14.788Z,1007.12
2018-08-21T06:46:55.282Z,1007.09
2018-08-21T06:47:35.793Z,1007.09
2018-08-21T06:48:16.357Z,1007.1
2018-08-21T06:48:56.799Z,1007.08
2018-08-21T06:49:37.290Z,1007.08
2018-08-21T06:50:17.776Z,1007.1
2018-08-21T06:50:58.302Z,1007.12
2018-08-21T06:51:38.772Z,1007.07
2018-08-21T06:52:19.276Z,1007.09
2018-08-21T06:52:59.805Z,1007.1
2018-08-21T06:53:40.346Z,1007.11
2018-08-21T06:54:20.794Z,1007.06
2018-08-21T06:55:01.291Z,1007.1
2018-08-21T06:55:41.778Z,1007.11
2018-08-21T06:56:22.302Z,1007.06
2018-08-21T06:57:02.804Z,1007.1
2018-08-21T06:57:43.337Z,1007.08
2018-08-21T06:58:23.791Z,1007.1
2018-08-21T06:59:04.296Z,1007.07
2018-08-21T06:59:44.792Z,1007.08
2018-08-21T07:00:25.259Z,1007.08
2018-08-21T07:01:05.731Z,1007.1
2018-08-21T07:01:46.195Z,1007.08
2018-08-21T07:02:26.697Z,1007.1
2018-08-21T07:03:07.202Z,1007.13
2018-08-21T07:03:47.733Z,1007.11
2018-08-21T07:04:28.215Z,1007.07
2018-08-21T07:05:08.714Z,1007.08
2018-08-21T07:05:49.229Z,1007.11
2018-08-21T07:06:29.690Z,1007.11
2018-08-21T07:07:10.225Z,1007.13
2018-08-21T07:07:50.707Z,1007.13
2018-08-21T07:08:31.210Z,1007.13
2018-08-21T07:09:11.716Z,1007.14
2018-08-21T07:09:52.178Z,1007.16
2018-08-21T07:10:32.667Z,1007.16
2018-08-21T07:11:13.171Z,1007.17
2018-08-21T07:11:53.680Z,1007.12
2018-08-21T07:12:34.202Z,1007.14
2018-08-21T07:13:14.725Z,1007.12
2018-08-21T07:13:55.213Z,1007.15
2018-08-21T07:14:35.852Z,1007.13
2018-08-21T07:15:16.265Z,1007.18
2018-08-21T07:15:56.780Z,1007.2
2018-08-21T07:16:37.313Z,1007.21
2018-08-21T07:17:17.788Z,1007.17
2018-08-21T07:17:58.285Z,1007.16
2018-08-21T07:18:38.760Z,1007.13
2018-08-21T07:19:19.257Z,1007.15
2018-08-21T07:19:59.744Z,1007.15
2018-08-21T07:20:40.263Z,1007.15
2018-08-21T07:21:20.759Z,1007.15
2018-08-21T07:22:01.254Z,1007.16
2018-08-21T07:22:41.737Z,1007.15
2018-08-21T07:23:22.267Z,1007.16
2018-08-21T07:24:02.753Z,1007.16
2018-08-21T07:24:43.268Z,1007.16
2018-08-21T07:25:23.760Z,1007.24
2018-08-21T07:26:04.266Z,1007.17
2018-08-21T07:26:44.704Z,1007.15
2018-08-21T07:27:25.214Z,1007.18
2018-08-21T07:28:05.718Z,1007.21
2018-08-21T07:28:46.198Z,1007.21
2018-08-21T07:29:26.702Z,1007.2
2018-08-21T07:30:07.236Z,1007.19
2018-08-21T07:30:47.741Z,1007.18
2018-08-21T07:31:28.196Z,1007.19
2018-08-21T07:32:08.703Z,1007.18
2018-08-21T07:32:49.164Z,1007.2
2018-08-21T07:33:29.668Z,1007.15
2018-08-21T07:34:10.207Z,1007.17
2018-08-21T07:34:50.687Z,1007.17
2018-08-21T07:35:31.221Z,1007.2
2018-08-21T07:36:11.689Z,1007.16
2018-08-21T07:36:52.189Z,1007.19
2018-08-21T07:37:32.659Z,1007.16
2018-08-21T07:38:13.196Z,1007.21
2018-08-21T07:38:53.703Z,1007.19
2018-08-21T07:39:34.251Z,1007.21
2018-08-21T07:40:14.732Z,1007.21
2018-08-21T07:40:55.204Z,1007.16
2018-08-21T07:41:35.702Z,1007.21
2018-08-21T07:42:16.192Z,1007.21
2018-08-21T07:42:56.667Z,1007.18
2018-08-21T07:43:37.149Z,1007.18
2018-08-21T07:44:17.710Z,1007.17
2018-08-21T07:44:58.215Z,1007.19
2018-08-21T07:45:38.725Z,1007.17
2018-08-21T07:46:19.267Z,1007.16
2018-08-21T07:46:59.745Z,1007.18
2018-08-21T07:47:40.240Z,1007.16
2018-08-21T07:48:20.713Z,1007.16
2018-08-21T07:49:01.221Z,1007.18
2018-08-21T07:49:41.719Z,1007.22
2018-08-21T07:50:22.193Z,1007.16
2018-08-21T07:51:02.709Z,1007.15
2018-08-21T07:51:43.245Z,1007.13
2018-08-21T07:52:23.735Z,1007.15
2018-08-21T07:53:04.249Z,1007.14
2018-08-21T07:53:44.736Z,1007.2
2018-08-21T07:54:25.199Z,1007.2
2018-08-21T07:55:05.722Z,1007.21
2018-08-21T07:55:46.256Z,1007.2
2018-08-21T07:56:26.746Z,1007.18
2018-08-21T07:57:07.224Z,1007.16
2018-08-21T07:57:47.742Z,1007.13
2018-08-21T07:58:28.218Z,1007.16
2018-08-21T07:59:08.721Z,1007.18
2018-08-21T07:59:49.193Z,1007.14
2018-08-21T08:00:29.702Z,1007.17
2018-08-21T08:01:10.190Z,1007.2
2018-08-21T08:01:50.697Z,1007.2
2018-08-21T08:02:31.217Z,1007.16
2018-08-21T08:03:11.720Z,1007.2
2018-08-21T08:03:52.266Z,1007.17
2018-08-21T08:04:32.757Z,1007.11
2018-08-21T08:05:13.264Z,1007.23
2018-08-21T08:05:53.777Z,1007.16
2018-08-21T08:06:34.280Z,1007.14
2018-08-21T08:07:14.803Z,1007.2
2018-08-21T08:07:55.268Z,1007.21
2018-08-21T08:08:35.785Z,1007.21
2018-08-21T08:09:16.310Z,1007.2
2018-08-21T08:09:56.784Z,1007.21
2018-08-21T08:10:37.285Z,1007.2
2018-08-21T08:11:17.813Z,1007.23
2018-08-21T08:11:58.293Z,1007.19